sensor_id;sensor_type;location;lat;lon;timestamp;P1;durP1;ratioP1;P2;durP2;ratioP2
14688;SDS011;7432;48.728;9.154;2023-03-19T00:01:53;9.73;;;7.17;;
14688;SDS011;7432;48.728;9.154;2023-03-19T00:04:20;7.50;;;6.80;;
14688;SDS011;7432;48.728;9.154;2023-03-19T00:06:48;7.30;;;6.60;;
14688;SDS011;7432;48.728;9.154;2023-03-19T00:09:14;8.83;;;7.10;;
14688;SDS011;7432;48.728;9.154;2023-03-19T00:11:41;7.73;;;7.03;;
14688;SDS011;7432;48.728;9.154;2023-03-19T00:14:07;8.27;;;7.33;;
14688;SDS011;7432;48.728;9.154;2023-03-19T00:16:34;7.50;;;6.80;;
14688;SDS011;7432;48.728;9.154;2023-03-19T00:19:03;7.77;;;6.57;;
14688;SDS011;7432;48.728;9.154;2023-03-19T00:21:29;9.47;;;6.53;;
14688;SDS011;7432;48.728;9.154;2023-03-19T00:23:56;8.50;;;6.60;;
14688;SDS011;7432;48.728;9.154;2023-03-19T00:26:26;7.47;;;6.63;;
14688;SDS011;7432;48.728;9.154;2023-03-19T00:28:53;9.00;;;6.60;;
14688;SDS011;7432;48.728;9.154;2023-03-19T00:31:19;7.83;;;6.80;;
14688;SDS011;7432;48.728;9.154;2023-03-19T00:33:46;7.70;;;6.97;;
14688;SDS011;7432;48.728;9.154;2023-03-19T00:36:14;10.70;;;6.97;;
14688;SDS011;7432;48.728;9.154;2023-03-19T00:38:41;9.50;;;6.60;;
14688;SDS011;7432;48.728;9.154;2023-03-19T00:41:08;9.67;;;6.73;;
14688;SDS011;7432;48.728;9.154;2023-03-19T00:43:34;8.00;;;6.50;;
14688;SDS011;7432;48.728;9.154;2023-03-19T00:46:01;7.10;;;6.40;;
14688;SDS011;7432;48.728;9.154;2023-03-19T00:48:28;7.87;;;7.10;;
14688;SDS011;7432;48.728;9.154;2023-03-19T00:50:54;8.13;;;7.33;;
14688;SDS011;7432;48.728;9.154;2023-03-19T00:53:22;9.77;;;7.40;;
14688;SDS011;7432;48.728;9.154;2023-03-19T00:55:48;10.03;;;7.93;;
14688;SDS011;7432;48.728;9.154;2023-03-19T00:58:15;11.57;;;7.90;;
14688;SDS011;7432;48.728;9.154;2023-03-19T01:00:41;9.07;;;7.03;;
14688;SDS011;7432;48.728;9.154;2023-03-19T01:03:07;9.17;;;7.50;;
14688;SDS011;7432;48.728;9.154;2023-03-19T01:05:34;12.70;;;7.67;;
14688;SDS011;7432;48.728;9.154;2023-03-19T01:08:01;9.80;;;7.93;;
14688;SDS011;7432;48.728;9.154;2023-03-19T01:10:29;13.17;;;8.90;;
14688;SDS011;7432;48.728;9.154;2023-03-19T01:12:58;10.27;;;7.93;;
14688;SDS011;7432;48.728;9.154;2023-03-19T01:15:25;10.37;;;8.03;;
14688;SDS011;7432;48.728;9.154;2023-03-19T01:17:51;12.20;;;8.63;;
14688;SDS011;7432;48.728;9.154;2023-03-19T01:20:18;8.43;;;7.63;;
14688;SDS011;7432;48.728;9.154;2023-03-19T01:22:47;8.97;;;7.83;;
14688;SDS011;7432;48.728;9.154;2023-03-19T01:25:14;10.27;;;7.57;;
14688;SDS011;7432;48.728;9.154;2023-03-19T01:27:42;8.77;;;7.73;;
14688;SDS011;7432;48.728;9.154;2023-03-19T01:30:09;9.03;;;7.37;;
14688;SDS011;7432;48.728;9.154;2023-03-19T01:32:36;8.93;;;7.03;;
14688;SDS011;7432;48.728;9.154;2023-03-19T01:35:02;7.80;;;6.70;;
14688;SDS011;7432;48.728;9.154;2023-03-19T01:37:29;6.97;;;6.23;;
14688;SDS011;7432;48.728;9.154;2023-03-19T01:39:55;6.37;;;5.67;;
14688;SDS011;7432;48.728;9.154;2023-03-19T01:42:21;6.80;;;5.87;;
14688;SDS011;7432;48.728;9.154;2023-03-19T01:44:49;6.73;;;6.13;;
14688;SDS011;7432;48.728;9.154;2023-03-19T01:47:16;5.47;;;4.70;;
14688;SDS011;7432;48.728;9.154;2023-03-19T01:49:45;6.77;;;5.60;;
14688;SDS011;7432;48.728;9.154;2023-03-19T01:52:17;5.87;;;5.27;;
14688;SDS011;7432;48.728;9.154;2023-03-19T01:54:43;7.33;;;5.17;;
14688;SDS011;7432;48.728;9.154;2023-03-19T01:57:11;5.70;;;5.20;;
14688;SDS011;7432;48.728;9.154;2023-03-19T01:59:40;5.40;;;5.00;;
14688;SDS011;7432;48.728;9.154;2023-03-19T02:02:10;5.47;;;4.97;;
14688;SDS011;7432;48.728;9.154;2023-03-19T02:04:42;5.70;;;5.23;;
14688;SDS011;7432;48.728;9.154;2023-03-19T02:07:12;5.93;;;5.37;;
14688;SDS011;7432;48.728;9.154;2023-03-19T02:09:39;5.80;;;5.40;;
14688;SDS011;7432;48.728;9.154;2023-03-19T02:12:06;6.70;;;6.10;;
14688;SDS011;7432;48.728;9.154;2023-03-19T02:14:34;6.30;;;5.80;;
14688;SDS011;7432;48.728;9.154;2023-03-19T02:17:01;6.40;;;5.80;;
14688;SDS011;7432;48.728;9.154;2023-03-19T02:19:30;6.37;;;5.77;;
14688;SDS011;7432;48.728;9.154;2023-03-19T02:22:02;6.90;;;6.03;;
14688;SDS011;7432;48.728;9.154;2023-03-19T02:24:31;6.70;;;6.10;;
14688;SDS011;7432;48.728;9.154;2023-03-19T02:27:02;5.90;;;5.40;;
14688;SDS011;7432;48.728;9.154;2023-03-19T02:29:30;5.67;;;5.27;;
14688;SDS011;7432;48.728;9.154;2023-03-19T02:31:56;5.97;;;5.50;;
14688;SDS011;7432;48.728;9.154;2023-03-19T02:34:32;5.53;;;5.03;;
14688;SDS011;7432;48.728;9.154;2023-03-19T02:37:02;6.50;;;5.90;;
14688;SDS011;7432;48.728;9.154;2023-03-19T02:39:33;6.57;;;5.83;;
14688;SDS011;7432;48.728;9.154;2023-03-19T02:42:06;5.10;;;4.70;;
14688;SDS011;7432;48.728;9.154;2023-03-19T02:44:34;5.40;;;5.00;;
14688;SDS011;7432;48.728;9.154;2023-03-19T02:47:01;5.73;;;5.23;;
14688;SDS011;7432;48.728;9.154;2023-03-19T02:49:28;5.47;;;5.07;;
14688;SDS011;7432;48.728;9.154;2023-03-19T02:51:54;5.90;;;5.40;;
14688;SDS011;7432;48.728;9.154;2023-03-19T02:54:20;5.80;;;5.30;;
14688;SDS011;7432;48.728;9.154;2023-03-19T02:56:47;6.63;;;5.37;;
14688;SDS011;7432;48.728;9.154;2023-03-19T02:59:15;6.17;;;5.67;;
14688;SDS011;7432;48.728;9.154;2023-03-19T03:01:42;7.97;;;5.47;;
14688;SDS011;7432;48.728;9.154;2023-03-19T03:04:08;5.33;;;4.90;;
14688;SDS011;7432;48.728;9.154;2023-03-19T03:06:34;6.63;;;5.50;;
14688;SDS011;7432;48.728;9.154;2023-03-19T03:09:01;5.70;;;5.20;;
14688;SDS011;7432;48.728;9.154;2023-03-19T03:11:28;5.63;;;5.13;;
14688;SDS011;7432;48.728;9.154;2023-03-19T03:13:55;9.10;;;5.60;;
14688;SDS011;7432;48.728;9.154;2023-03-19T03:16:23;6.93;;;6.23;;
14688;SDS011;7432;48.728;9.154;2023-03-19T03:18:50;6.43;;;5.87;;
14688;SDS011;7432;48.728;9.154;2023-03-19T03:21:16;6.90;;;6.20;;
14688;SDS011;7432;48.728;9.154;2023-03-19T03:23:44;7.33;;;6.73;;
14688;SDS011;7432;48.728;9.154;2023-03-19T03:26:11;6.00;;;5.50;;
14688;SDS011;7432;48.728;9.154;2023-03-19T03:28:37;6.50;;;5.83;;
14688;SDS011;7432;48.728;9.154;2023-03-19T03:31:04;8.70;;;6.50;;
14688;SDS011;7432;48.728;9.154;2023-03-19T03:33:32;6.40;;;5.90;;
14688;SDS011;7432;48.728;9.154;2023-03-19T03:35:58;6.80;;;5.30;;
14688;SDS011;7432;48.728;9.154;2023-03-19T03:38:25;6.27;;;5.70;;
14688;SDS011;7432;48.728;9.154;2023-03-19T03:40:51;6.20;;;5.60;;
14688;SDS011;7432;48.728;9.154;2023-03-19T03:43:18;5.70;;;5.20;;
14688;SDS011;7432;48.728;9.154;2023-03-19T03:45:45;6.23;;;5.63;;
14688;SDS011;7432;48.728;9.154;2023-03-19T03:48:12;6.63;;;5.60;;
14688;SDS011;7432;48.728;9.154;2023-03-19T03:50:41;6.27;;;5.67;;
14688;SDS011;7432;48.728;9.154;2023-03-19T03:53:07;7.23;;;5.87;;
14688;SDS011;7432;48.728;9.154;2023-03-19T03:55:36;6.27;;;5.70;;
14688;SDS011;7432;48.728;9.154;2023-03-19T03:58:02;5.90;;;5.40;;
14688;SDS011;7432;48.728;9.154;2023-03-19T04:00:29;6.30;;;5.80;;
14688;SDS011;7432;48.728;9.154;2023-03-19T04:02:56;5.77;;;5.27;;
14688;SDS011;7432;48.728;9.154;2023-03-19T04:05:23;5.97;;;5.23;;
14688;SDS011;7432;48.728;9.154;2023-03-19T04:07:51;5.87;;;5.37;;
14688;SDS011;7432;48.728;9.154;2023-03-19T04:10:18;5.70;;;5.20;;
14688;SDS011;7432;48.728;9.154;2023-03-19T04:12:44;5.90;;;5.30;;
14688;SDS011;7432;48.728;9.154;2023-03-19T04:15:11;6.20;;;5.60;;
14688;SDS011;7432;48.728;9.154;2023-03-19T04:17:38;8.87;;;6.10;;
14688;SDS011;7432;48.728;9.154;2023-03-19T04:20:06;5.97;;;5.47;;
14688;SDS011;7432;48.728;9.154;2023-03-19T04:22:33;6.47;;;5.67;;
14688;SDS011;7432;48.728;9.154;2023-03-19T04:25:01;6.00;;;5.40;;
14688;SDS011;7432;48.728;9.154;2023-03-19T04:27:28;6.50;;;5.57;;
14688;SDS011;7432;48.728;9.154;2023-03-19T04:29:55;6.13;;;5.43;;
14688;SDS011;7432;48.728;9.154;2023-03-19T04:32:21;6.03;;;5.43;;
14688;SDS011;7432;48.728;9.154;2023-03-19T04:34:49;6.07;;;5.57;;
14688;SDS011;7432;48.728;9.154;2023-03-19T04:37:15;8.77;;;5.70;;
14688;SDS011;7432;48.728;9.154;2023-03-19T04:39:41;6.20;;;5.60;;
14688;SDS011;7432;48.728;9.154;2023-03-19T04:42:09;5.80;;;5.23;;
14688;SDS011;7432;48.728;9.154;2023-03-19T04:44:36;6.50;;;5.67;;
14688;SDS011;7432;48.728;9.154;2023-03-19T04:47:02;5.70;;;5.20;;
14688;SDS011;7432;48.728;9.154;2023-03-19T04:49:29;7.23;;;5.47;;
14688;SDS011;7432;48.728;9.154;2023-03-19T04:51:56;5.97;;;5.47;;
14688;SDS011;7432;48.728;9.154;2023-03-19T04:54:22;5.73;;;5.23;;
14688;SDS011;7432;48.728;9.154;2023-03-19T04:56:49;5.63;;;5.13;;
14688;SDS011;7432;48.728;9.154;2023-03-19T04:59:18;5.70;;;5.20;;
14688;SDS011;7432;48.728;9.154;2023-03-19T05:01:45;5.93;;;5.33;;
14688;SDS011;7432;48.728;9.154;2023-03-19T05:04:11;5.90;;;5.30;;
14688;SDS011;7432;48.728;9.154;2023-03-19T05:06:38;7.10;;;5.23;;
14688;SDS011;7432;48.728;9.154;2023-03-19T05:09:05;5.87;;;5.33;;
14688;SDS011;7432;48.728;9.154;2023-03-19T05:11:31;5.40;;;4.90;;
14688;SDS011;7432;48.728;9.154;2023-03-19T05:13:58;6.53;;;5.17;;
14688;SDS011;7432;48.728;9.154;2023-03-19T05:16:26;5.77;;;5.27;;
14688;SDS011;7432;48.728;9.154;2023-03-19T05:18:52;5.97;;;5.47;;
14688;SDS011;7432;48.728;9.154;2023-03-19T05:21:19;5.80;;;5.17;;
14688;SDS011;7432;48.728;9.154;2023-03-19T05:23:45;5.70;;;5.17;;
14688;SDS011;7432;48.728;9.154;2023-03-19T05:26:16;5.90;;;5.30;;
14688;SDS011;7432;48.728;9.154;2023-03-19T05:28:42;6.43;;;5.40;;
14688;SDS011;7432;48.728;9.154;2023-03-19T05:31:08;5.43;;;4.93;;
14688;SDS011;7432;48.728;9.154;2023-03-19T05:33:37;5.67;;;5.17;;
14688;SDS011;7432;48.728;9.154;2023-03-19T05:36:03;6.77;;;5.60;;
14688;SDS011;7432;48.728;9.154;2023-03-19T05:38:31;7.23;;;5.60;;
14688;SDS011;7432;48.728;9.154;2023-03-19T05:41:01;5.53;;;4.97;;
14688;SDS011;7432;48.728;9.154;2023-03-19T05:43:29;5.43;;;4.93;;
14688;SDS011;7432;48.728;9.154;2023-03-19T05:45:55;6.00;;;5.50;;
14688;SDS011;7432;48.728;9.154;2023-03-19T05:48:22;6.20;;;5.60;;
14688;SDS011;7432;48.728;9.154;2023-03-19T05:50:49;5.87;;;5.37;;
14688;SDS011;7432;48.728;9.154;2023-03-19T05:53:16;6.20;;;5.70;;
14688;SDS011;7432;48.728;9.154;2023-03-19T05:55:43;6.10;;;5.50;;
14688;SDS011;7432;48.728;9.154;2023-03-19T05:58:09;6.10;;;5.60;;
14688;SDS011;7432;48.728;9.154;2023-03-19T06:00:36;5.83;;;5.00;;
14688;SDS011;7432;48.728;9.154;2023-03-19T06:03:02;6.73;;;5.27;;
14688;SDS011;7432;48.728;9.154;2023-03-19T06:05:29;7.40;;;5.50;;
14688;SDS011;7432;48.728;9.154;2023-03-19T06:07:57;5.87;;;5.37;;
14688;SDS011;7432;48.728;9.154;2023-03-19T06:10:23;6.30;;;5.70;;
14688;SDS011;7432;48.728;9.154;2023-03-19T06:12:50;5.70;;;5.17;;
14688;SDS011;7432;48.728;9.154;2023-03-19T06:15:16;6.07;;;5.57;;
14688;SDS011;7432;48.728;9.154;2023-03-19T06:17:42;6.03;;;5.20;;
14688;SDS011;7432;48.728;9.154;2023-03-19T06:20:10;5.73;;;5.23;;
14688;SDS011;7432;48.728;9.154;2023-03-19T06:22:37;6.03;;;5.40;;
14688;SDS011;7432;48.728;9.154;2023-03-19T06:25:05;6.33;;;5.77;;
14688;SDS011;7432;48.728;9.154;2023-03-19T06:27:32;6.17;;;5.57;;
14688;SDS011;7432;48.728;9.154;2023-03-19T06:29:58;6.17;;;5.57;;
14688;SDS011;7432;48.728;9.154;2023-03-19T06:32:25;7.53;;;5.67;;
14688;SDS011;7432;48.728;9.154;2023-03-19T06:34:51;6.77;;;5.63;;
14688;SDS011;7432;48.728;9.154;2023-03-19T06:37:19;6.07;;;5.57;;
14688;SDS011;7432;48.728;9.154;2023-03-19T06:39:45;5.53;;;5.13;;
14688;SDS011;7432;48.728;9.154;2023-03-19T06:42:14;6.30;;;5.70;;
14688;SDS011;7432;48.728;9.154;2023-03-19T06:44:41;5.70;;;5.20;;
14688;SDS011;7432;48.728;9.154;2023-03-19T06:47:07;5.93;;;5.43;;
14688;SDS011;7432;48.728;9.154;2023-03-19T06:49:34;5.93;;;5.20;;
14688;SDS011;7432;48.728;9.154;2023-03-19T06:52:00;5.87;;;5.27;;
14688;SDS011;7432;48.728;9.154;2023-03-19T06:54:26;6.03;;;5.43;;
14688;SDS011;7432;48.728;9.154;2023-03-19T06:56:53;5.63;;;5.00;;
14688;SDS011;7432;48.728;9.154;2023-03-19T06:59:21;5.07;;;4.67;;
14688;SDS011;7432;48.728;9.154;2023-03-19T07:01:47;6.10;;;4.97;;
14688;SDS011;7432;48.728;9.154;2023-03-19T07:04:13;5.37;;;4.97;;
14688;SDS011;7432;48.728;9.154;2023-03-19T07:06:40;5.13;;;4.73;;
14688;SDS011;7432;48.728;9.154;2023-03-19T07:09:06;5.43;;;4.93;;
14688;SDS011;7432;48.728;9.154;2023-03-19T07:11:33;5.17;;;4.77;;
14688;SDS011;7432;48.728;9.154;2023-03-19T07:13:59;6.67;;;5.40;;
14688;SDS011;7432;48.728;9.154;2023-03-19T07:16:27;5.73;;;5.20;;
14688;SDS011;7432;48.728;9.154;2023-03-19T07:18:53;5.40;;;4.90;;
14688;SDS011;7432;48.728;9.154;2023-03-19T07:21:20;6.23;;;5.17;;
14688;SDS011;7432;48.728;9.154;2023-03-19T07:23:47;5.97;;;5.47;;
14688;SDS011;7432;48.728;9.154;2023-03-19T07:26:14;5.80;;;5.40;;
14688;SDS011;7432;48.728;9.154;2023-03-19T07:28:41;5.80;;;5.30;;
14688;SDS011;7432;48.728;9.154;2023-03-19T07:31:07;5.87;;;5.37;;
14688;SDS011;7432;48.728;9.154;2023-03-19T07:33:35;5.90;;;5.40;;
14688;SDS011;7432;48.728;9.154;2023-03-19T07:36:02;6.33;;;5.43;;
14688;SDS011;7432;48.728;9.154;2023-03-19T07:38:29;5.30;;;4.83;;
14688;SDS011;7432;48.728;9.154;2023-03-19T07:40:55;5.50;;;5.10;;
14688;SDS011;7432;48.728;9.154;2023-03-19T07:43:21;5.40;;;4.97;;
14688;SDS011;7432;48.728;9.154;2023-03-19T07:45:48;5.13;;;4.73;;
14688;SDS011;7432;48.728;9.154;2023-03-19T07:48:14;5.37;;;4.87;;
14688;SDS011;7432;48.728;9.154;2023-03-19T07:50:42;5.23;;;4.83;;
14688;SDS011;7432;48.728;9.154;2023-03-19T07:53:09;5.60;;;5.10;;
14688;SDS011;7432;48.728;9.154;2023-03-19T07:55:35;5.40;;;5.00;;
14688;SDS011;7432;48.728;9.154;2023-03-19T07:58:02;5.47;;;4.97;;
14688;SDS011;7432;48.728;9.154;2023-03-19T08:00:28;5.60;;;5.10;;
14688;SDS011;7432;48.728;9.154;2023-03-19T08:02:55;5.40;;;5.00;;
14688;SDS011;7432;48.728;9.154;2023-03-19T08:05:21;5.63;;;5.13;;
14688;SDS011;7432;48.728;9.154;2023-03-19T08:07:49;5.33;;;4.60;;
14688;SDS011;7432;48.728;9.154;2023-03-19T08:10:16;5.80;;;4.83;;
14688;SDS011;7432;48.728;9.154;2023-03-19T08:12:43;5.57;;;5.17;;
14688;SDS011;7432;48.728;9.154;2023-03-19T08:15:10;5.53;;;5.10;;
14688;SDS011;7432;48.728;9.154;2023-03-19T08:17:36;5.60;;;5.10;;
14688;SDS011;7432;48.728;9.154;2023-03-19T08:20:04;5.83;;;5.33;;
14688;SDS011;7432;48.728;9.154;2023-03-19T08:22:32;5.00;;;4.60;;
14688;SDS011;7432;48.728;9.154;2023-03-19T08:25:00;5.90;;;4.90;;
14688;SDS011;7432;48.728;9.154;2023-03-19T08:27:27;6.07;;;5.17;;
14688;SDS011;7432;48.728;9.154;2023-03-19T08:29:54;5.17;;;4.77;;
14688;SDS011;7432;48.728;9.154;2023-03-19T08:32:21;6.17;;;5.50;;
14688;SDS011;7432;48.728;9.154;2023-03-19T08:34:47;5.83;;;5.07;;
14688;SDS011;7432;48.728;9.154;2023-03-19T08:37:13;5.50;;;5.00;;
14688;SDS011;7432;48.728;9.154;2023-03-19T08:39:40;6.30;;;5.70;;
14688;SDS011;7432;48.728;9.154;2023-03-19T08:42:08;5.77;;;5.30;;
14688;SDS011;7432;48.728;9.154;2023-03-19T08:44:35;5.10;;;4.70;;
14688;SDS011;7432;48.728;9.154;2023-03-19T08:47:01;5.27;;;4.80;;
14688;SDS011;7432;48.728;9.154;2023-03-19T08:49:28;5.73;;;5.30;;
14688;SDS011;7432;48.728;9.154;2023-03-19T08:51:55;5.83;;;5.37;;
14688;SDS011;7432;48.728;9.154;2023-03-19T08:54:21;5.67;;;5.10;;
14688;SDS011;7432;48.728;9.154;2023-03-19T08:56:47;5.33;;;4.80;;
14688;SDS011;7432;48.728;9.154;2023-03-19T08:59:16;5.53;;;5.10;;
14688;SDS011;7432;48.728;9.154;2023-03-19T09:01:42;5.77;;;5.27;;
14688;SDS011;7432;48.728;9.154;2023-03-19T09:04:09;5.73;;;5.23;;
14688;SDS011;7432;48.728;9.154;2023-03-19T09:06:35;5.43;;;4.77;;
14688;SDS011;7432;48.728;9.154;2023-03-19T09:09:02;6.10;;;5.50;;
14688;SDS011;7432;48.728;9.154;2023-03-19T09:11:28;6.33;;;5.73;;
14688;SDS011;7432;48.728;9.154;2023-03-19T09:13:55;6.37;;;5.87;;
14688;SDS011;7432;48.728;9.154;2023-03-19T09:16:24;5.83;;;5.40;;
14688;SDS011;7432;48.728;9.154;2023-03-19T09:18:50;6.20;;;5.70;;
14688;SDS011;7432;48.728;9.154;2023-03-19T09:21:17;6.53;;;5.70;;
14688;SDS011;7432;48.728;9.154;2023-03-19T09:23:43;6.50;;;6.00;;
14688;SDS011;7432;48.728;9.154;2023-03-19T09:26:10;5.80;;;5.40;;
14688;SDS011;7432;48.728;9.154;2023-03-19T09:28:36;5.87;;;5.53;;
14688;SDS011;7432;48.728;9.154;2023-03-19T09:31:03;6.00;;;5.60;;
14688;SDS011;7432;48.728;9.154;2023-03-19T09:33:32;5.50;;;4.95;;
14688;SDS011;7432;48.728;9.154;2023-03-19T09:35:59;5.45;;;5.15;;
14688;SDS011;7432;48.728;9.154;2023-03-19T09:38:25;5.90;;;5.50;;
14688;SDS011;7432;48.728;9.154;2023-03-19T09:40:58;6.10;;;5.47;;
14688;SDS011;7432;48.728;9.154;2023-03-19T09:43:35;5.70;;;5.30;;
14688;SDS011;7432;48.728;9.154;2023-03-19T09:46:24;6.10;;;5.70;;
14688;SDS011;7432;48.728;9.154;2023-03-19T09:48:58;6.35;;;5.95;;
14688;SDS011;7432;48.728;9.154;2023-03-19T09:51:33;6.22;;;5.80;;
14688;SDS011;7432;48.728;9.154;2023-03-19T09:54:07;6.00;;;5.57;;
14688;SDS011;7432;48.728;9.154;2023-03-19T09:56:38;6.30;;;5.90;;
14688;SDS011;7432;48.728;9.154;2023-03-19T09:59:07;6.10;;;5.60;;
14688;SDS011;7432;48.728;9.154;2023-03-19T10:01:34;5.75;;;5.30;;
14688;SDS011;7432;48.728;9.154;2023-03-19T10:04:12;6.10;;;5.50;;
14688;SDS011;7432;48.728;9.154;2023-03-19T10:06:50;7.03;;;5.87;;
14688;SDS011;7432;48.728;9.154;2023-03-19T10:09:27;5.83;;;5.27;;
14688;SDS011;7432;48.728;9.154;2023-03-19T10:12:08;5.63;;;5.20;;
14688;SDS011;7432;48.728;9.154;2023-03-19T10:17:41;5.90;;;5.27;;
14688;SDS011;7432;48.728;9.154;2023-03-19T10:20:18;5.47;;;5.07;;
14688;SDS011;7432;48.728;9.154;2023-03-19T10:22:53;5.80;;;5.30;;
14688;SDS011;7432;48.728;9.154;2023-03-19T10:25:27;5.70;;;5.30;;
14688;SDS011;7432;48.728;9.154;2023-03-19T10:27:58;6.03;;;5.53;;
14688;SDS011;7432;48.728;9.154;2023-03-19T10:30:30;5.87;;;5.37;;
14688;SDS011;7432;48.728;9.154;2023-03-19T10:33:02;6.27;;;5.63;;
14688;SDS011;7432;48.728;9.154;2023-03-19T10:35:42;5.33;;;4.93;;
14688;SDS011;7432;48.728;9.154;2023-03-19T10:38:17;6.20;;;5.80;;
14688;SDS011;7432;48.728;9.154;2023-03-19T10:40:47;5.43;;;5.03;;
14688;SDS011;7432;48.728;9.154;2023-03-19T10:43:26;5.80;;;5.33;;
14688;SDS011;7432;48.728;9.154;2023-03-19T10:45:55;6.23;;;5.43;;
14688;SDS011;7432;48.728;9.154;2023-03-19T10:48:23;5.70;;;5.20;;
14688;SDS011;7432;48.728;9.154;2023-03-19T10:50:53;5.37;;;4.90;;
14688;SDS011;7432;48.728;9.154;2023-03-19T10:53:27;6.40;;;5.70;;
14688;SDS011;7432;48.728;9.154;2023-03-19T10:55:59;6.10;;;5.60;;
14688;SDS011;7432;48.728;9.154;2023-03-19T10:58:28;6.00;;;5.60;;
14688;SDS011;7432;48.728;9.154;2023-03-19T11:00:57;6.00;;;5.50;;
14688;SDS011;7432;48.728;9.154;2023-03-19T11:03:29;5.60;;;5.10;;
14688;SDS011;7432;48.728;9.154;2023-03-19T11:06:05;5.90;;;5.47;;
14688;SDS011;7432;48.728;9.154;2023-03-19T11:08:42;5.50;;;5.10;;
14688;SDS011;7432;48.728;9.154;2023-03-19T11:11:21;5.33;;;5.03;;
14688;SDS011;7432;48.728;9.154;2023-03-19T11:13:50;6.00;;;5.40;;
14688;SDS011;7432;48.728;9.154;2023-03-19T11:16:17;5.40;;;5.00;;
14688;SDS011;7432;48.728;9.154;2023-03-19T11:18:44;6.30;;;5.80;;
14688;SDS011;7432;48.728;9.154;2023-03-19T11:21:21;6.03;;;5.28;;
14688;SDS011;7432;48.728;9.154;2023-03-19T11:23:54;5.90;;;5.40;;
14688;SDS011;7432;48.728;9.154;2023-03-19T11:26:26;6.33;;;5.83;;
14688;SDS011;7432;48.728;9.154;2023-03-19T11:28:52;5.23;;;4.83;;
14688;SDS011;7432;48.728;9.154;2023-03-19T11:31:22;5.80;;;5.30;;
14688;SDS011;7432;48.728;9.154;2023-03-19T11:33:54;6.60;;;6.00;;
14688;SDS011;7432;48.728;9.154;2023-03-19T11:36:26;6.18;;;5.72;;
14688;SDS011;7432;48.728;9.154;2023-03-19T11:39:05;5.68;;;5.18;;
14688;SDS011;7432;48.728;9.154;2023-03-19T11:41:45;5.78;;;5.28;;
14688;SDS011;7432;48.728;9.154;2023-03-19T11:44:22;6.03;;;5.57;;
14688;SDS011;7432;48.728;9.154;2023-03-19T11:46:54;6.37;;;5.87;;
14688;SDS011;7432;48.728;9.154;2023-03-19T11:49:36;5.73;;;5.20;;
14688;SDS011;7432;48.728;9.154;2023-03-19T11:52:17;6.03;;;5.53;;
14688;SDS011;7432;48.728;9.154;2023-03-19T11:54:50;7.17;;;5.53;;
14688;SDS011;7432;48.728;9.154;2023-03-19T11:57:31;5.33;;;4.90;;
14688;SDS011;7432;48.728;9.154;2023-03-19T12:00:12;6.13;;;5.53;;
14688;SDS011;7432;48.728;9.154;2023-03-19T12:03:02;5.67;;;5.17;;
14688;SDS011;7432;48.728;9.154;2023-03-19T12:05:48;5.60;;;5.10;;
14688;SDS011;7432;48.728;9.154;2023-03-19T12:08:26;6.00;;;5.50;;
14688;SDS011;7432;48.728;9.154;2023-03-19T12:11:02;5.70;;;5.13;;
14688;SDS011;7432;48.728;9.154;2023-03-19T12:13:55;5.57;;;5.10;;
14688;SDS011;7432;48.728;9.154;2023-03-19T12:16:34;5.43;;;4.93;;
14688;SDS011;7432;48.728;9.154;2023-03-19T12:19:22;5.47;;;5.00;;
14688;SDS011;7432;48.728;9.154;2023-03-19T12:22:08;5.73;;;5.33;;
14688;SDS011;7432;48.728;9.154;2023-03-19T12:24:46;7.23;;;6.57;;
14688;SDS011;7432;48.728;9.154;2023-03-19T12:27:27;8.27;;;7.47;;
14688;SDS011;7432;48.728;9.154;2023-03-19T12:30:01;6.23;;;5.80;;
14688;SDS011;7432;48.728;9.154;2023-03-19T12:32:38;6.40;;;5.80;;
14688;SDS011;7432;48.728;9.154;2023-03-19T12:35:19;6.13;;;5.53;;
14688;SDS011;7432;48.728;9.154;2023-03-19T12:37:51;6.03;;;5.50;;
14688;SDS011;7432;48.728;9.154;2023-03-19T12:40:26;5.43;;;5.07;;
14688;SDS011;7432;48.728;9.154;2023-03-19T12:42:57;5.40;;;5.10;;
14688;SDS011;7432;48.728;9.154;2023-03-19T12:45:28;6.85;;;5.38;;
14688;SDS011;7432;48.728;9.154;2023-03-19T12:48:01;6.25;;;5.85;;
14688;SDS011;7432;48.728;9.154;2023-03-19T12:50:32;5.30;;;5.00;;
14688;SDS011;7432;48.728;9.154;2023-03-19T12:53:04;5.78;;;5.30;;
14688;SDS011;7432;48.728;9.154;2023-03-19T12:55:38;6.05;;;5.57;;
14688;SDS011;7432;48.728;9.154;2023-03-19T12:58:10;6.00;;;5.45;;
14688;SDS011;7432;48.728;9.154;2023-03-19T13:00:44;6.20;;;5.70;;
14688;SDS011;7432;48.728;9.154;2023-03-19T13:03:19;6.07;;;5.57;;
14688;SDS011;7432;48.728;9.154;2023-03-19T13:05:51;5.80;;;5.40;;
14688;SDS011;7432;48.728;9.154;2023-03-19T13:08:25;6.30;;;5.80;;
14688;SDS011;7432;48.728;9.154;2023-03-19T13:10:56;5.60;;;5.20;;
14688;SDS011;7432;48.728;9.154;2023-03-19T13:13:30;6.23;;;5.73;;
14688;SDS011;7432;48.728;9.154;2023-03-19T13:16:05;8.23;;;5.60;;
14688;SDS011;7432;48.728;9.154;2023-03-19T13:18:39;5.70;;;5.20;;
14688;SDS011;7432;48.728;9.154;2023-03-19T13:21:18;6.77;;;5.40;;
14688;SDS011;7432;48.728;9.154;2023-03-19T13:23:49;5.53;;;5.10;;
14688;SDS011;7432;48.728;9.154;2023-03-19T13:26:27;5.27;;;4.90;;
14688;SDS011;7432;48.728;9.154;2023-03-19T13:28:58;5.80;;;5.20;;
14688;SDS011;7432;48.728;9.154;2023-03-19T13:31:26;5.53;;;5.03;;
14688;SDS011;7432;48.728;9.154;2023-03-19T13:34:02;4.90;;;4.60;;
14688;SDS011;7432;48.728;9.154;2023-03-19T13:36:34;4.97;;;4.57;;
14688;SDS011;7432;48.728;9.154;2023-03-19T13:39:03;5.80;;;5.40;;
14688;SDS011;7432;48.728;9.154;2023-03-19T13:44:48;5.37;;;4.97;;
14688;SDS011;7432;48.728;9.154;2023-03-19T13:47:37;5.00;;;4.60;;
14688;SDS011;7432;48.728;9.154;2023-03-19T13:50:18;5.00;;;4.57;;
14688;SDS011;7432;48.728;9.154;2023-03-19T13:52:49;6.03;;;5.53;;
14688;SDS011;7432;48.728;9.154;2023-03-19T13:58:17;5.20;;;4.90;;
14688;SDS011;7432;48.728;9.154;2023-03-19T14:01:03;5.77;;;5.30;;
14688;SDS011;7432;48.728;9.154;2023-03-19T14:03:30;5.10;;;4.80;;
14688;SDS011;7432;48.728;9.154;2023-03-19T14:05:58;5.63;;;5.13;;
14688;SDS011;7432;48.728;9.154;2023-03-19T14:08:26;5.50;;;5.10;;
14688;SDS011;7432;48.728;9.154;2023-03-19T14:10:54;5.07;;;4.63;;
14688;SDS011;7432;48.728;9.154;2023-03-19T14:13:27;6.10;;;5.50;;
14688;SDS011;7432;48.728;9.154;2023-03-19T14:15:59;5.50;;;5.10;;
14688;SDS011;7432;48.728;9.154;2023-03-19T14:18:30;5.27;;;4.87;;
14688;SDS011;7432;48.728;9.154;2023-03-19T14:20:59;5.77;;;5.27;;
14688;SDS011;7432;48.728;9.154;2023-03-19T14:23:29;8.93;;;8.13;;
14688;SDS011;7432;48.728;9.154;2023-03-19T14:25:58;7.60;;;7.00;;
14688;SDS011;7432;48.728;9.154;2023-03-19T14:28:33;6.77;;;6.30;;
14688;SDS011;7432;48.728;9.154;2023-03-19T14:31:04;6.10;;;5.60;;
14688;SDS011;7432;48.728;9.154;2023-03-19T14:33:33;5.87;;;5.47;;
14688;SDS011;7432;48.728;9.154;2023-03-19T14:36:07;5.13;;;4.83;;
14688;SDS011;7432;48.728;9.154;2023-03-19T14:38:39;5.47;;;5.07;;
14688;SDS011;7432;48.728;9.154;2023-03-19T14:41:14;5.20;;;4.80;;
14688;SDS011;7432;48.728;9.154;2023-03-19T14:43:51;5.10;;;4.80;;
14688;SDS011;7432;48.728;9.154;2023-03-19T14:46:31;5.43;;;5.13;;
14688;SDS011;7432;48.728;9.154;2023-03-19T14:49:24;5.50;;;5.00;;
14688;SDS011;7432;48.728;9.154;2023-03-19T14:52:11;6.00;;;5.60;;
14688;SDS011;7432;48.728;9.154;2023-03-19T14:54:42;5.93;;;5.53;;
14688;SDS011;7432;48.728;9.154;2023-03-19T14:57:15;5.77;;;5.37;;
14688;SDS011;7432;48.728;9.154;2023-03-19T14:59:44;6.23;;;5.63;;
14688;SDS011;7432;48.728;9.154;2023-03-19T15:02:18;6.00;;;5.50;;
14688;SDS011;7432;48.728;9.154;2023-03-19T15:04:50;6.00;;;5.53;;
14688;SDS011;7432;48.728;9.154;2023-03-19T15:07:17;5.90;;;5.50;;
14688;SDS011;7432;48.728;9.154;2023-03-19T15:09:52;5.77;;;5.27;;
14688;SDS011;7432;48.728;9.154;2023-03-19T15:12:30;5.33;;;5.03;;
14688;SDS011;7432;48.728;9.154;2023-03-19T15:18:01;5.87;;;5.37;;
14688;SDS011;7432;48.728;9.154;2023-03-19T15:20:32;5.70;;;5.20;;
14688;SDS011;7432;48.728;9.154;2023-03-19T15:23:02;5.63;;;5.23;;
14688;SDS011;7432;48.728;9.154;2023-03-19T15:25:32;5.70;;;5.30;;
14688;SDS011;7432;48.728;9.154;2023-03-19T15:28:05;5.93;;;5.50;;